sensor_id;sensor_type;location;lat;lon;timestamp;P1;durP1;ratioP1;P2;durP2;ratioP2
24787;SDS011;12883;52.662;5.196;2022-11-20T00:02:09;8.67;;;8.67;;
24787;SDS011;12883;52.662;5.196;2022-11-20T00:04:34;8.43;;;8.43;;
24787;SDS011;12883;52.662;5.196;2022-11-20T00:06:59;7.63;;;7.63;;
24787;SDS011;12883;52.662;5.196;2022-11-20T00:09:25;8.17;;;8.17;;
24787;SDS011;12883;52.662;5.196;2022-11-20T00:11:50;8.10;;;8.10;;
24787;SDS011;12883;52.662;5.196;2022-11-20T00:14:15;8.07;;;8.07;;
24787;SDS011;12883;52.662;5.196;2022-11-20T00:16:41;8.23;;;8.23;;
24787;SDS011;12883;52.662;5.196;2022-11-20T00:19:07;8.50;;;8.50;;
24787;SDS011;12883;52.662;5.196;2022-11-20T00:21:32;7.63;;;7.63;;
24787;SDS011;12883;52.662;5.196;2022-11-20T00:23:57;8.30;;;8.30;;
24787;SDS011;12883;52.662;5.196;2022-11-20T00:26:24;7.97;;;7.97;;
24787;SDS011;12883;52.662;5.196;2022-11-20T00:28:52;9.00;;;9.00;;
24787;SDS011;12883;52.662;5.196;2022-11-20T00:31:19;8.33;;;8.33;;
24787;SDS011;12883;52.662;5.196;2022-11-20T00:33:44;8.30;;;8.30;;
24787;SDS011;12883;52.662;5.196;2022-11-20T00:36:12;8.27;;;8.27;;
24787;SDS011;12883;52.662;5.196;2022-11-20T00:38:39;8.10;;;8.10;;
24787;SDS011;12883;52.662;5.196;2022-11-20T00:41:09;7.90;;;7.90;;
24787;SDS011;12883;52.662;5.196;2022-11-20T00:43:36;8.50;;;8.50;;
24787;SDS011;12883;52.662;5.196;2022-11-20T00:46:06;8.57;;;8.57;;
24787;SDS011;12883;52.662;5.196;2022-11-20T00:48:37;8.30;;;8.30;;
24787;SDS011;12883;52.662;5.196;2022-11-20T00:51:02;8.37;;;8.37;;
24787;SDS011;12883;52.662;5.196;2022-11-20T00:53:28;7.63;;;7.63;;
24787;SDS011;12883;52.662;5.196;2022-11-20T00:55:54;7.70;;;7.70;;
24787;SDS011;12883;52.662;5.196;2022-11-20T00:58:22;8.90;;;8.90;;
24787;SDS011;12883;52.662;5.196;2022-11-20T01:00:48;7.73;;;7.73;;
24787;SDS011;12883;52.662;5.196;2022-11-20T01:03:14;8.37;;;8.37;;
24787;SDS011;12883;52.662;5.196;2022-11-20T01:05:41;8.13;;;8.13;;
24787;SDS011;12883;52.662;5.196;2022-11-20T01:08:06;7.67;;;7.67;;
24787;SDS011;12883;52.662;5.196;2022-11-20T01:10:32;8.10;;;8.10;;
24787;SDS011;12883;52.662;5.196;2022-11-20T01:12:57;8.03;;;8.03;;
24787;SDS011;12883;52.662;5.196;2022-11-20T01:15:41;8.40;;;8.40;;
24787;SDS011;12883;52.662;5.196;2022-11-20T01:18:06;8.77;;;8.77;;
24787;SDS011;12883;52.662;5.196;2022-11-20T01:20:35;8.23;;;8.23;;
24787;SDS011;12883;52.662;5.196;2022-11-20T01:23:01;8.37;;;8.37;;
24787;SDS011;12883;52.662;5.196;2022-11-20T01:25:27;7.93;;;7.93;;
24787;SDS011;12883;52.662;5.196;2022-11-20T01:27:52;7.87;;;7.87;;
24787;SDS011;12883;52.662;5.196;2022-11-20T01:30:18;8.40;;;8.40;;
24787;SDS011;12883;52.662;5.196;2022-11-20T01:32:43;8.60;;;8.60;;
24787;SDS011;12883;52.662;5.196;2022-11-20T01:35:09;8.03;;;8.03;;
24787;SDS011;12883;52.662;5.196;2022-11-20T01:37:35;7.97;;;7.97;;
24787;SDS011;12883;52.662;5.196;2022-11-20T01:40:00;8.00;;;8.00;;
24787;SDS011;12883;52.662;5.196;2022-11-20T01:42:25;7.63;;;7.63;;
24787;SDS011;12883;52.662;5.196;2022-11-20T01:48:17;8.43;;;8.43;;
24787;SDS011;12883;52.662;5.196;2022-11-20T01:50:44;8.23;;;8.23;;
24787;SDS011;12883;52.662;5.196;2022-11-20T01:53:11;8.03;;;8.03;;
24787;SDS011;12883;52.662;5.196;2022-11-20T01:55:46;7.97;;;7.97;;
24787;SDS011;12883;52.662;5.196;2022-11-20T01:58:15;8.03;;;8.03;;
24787;SDS011;12883;52.662;5.196;2022-11-20T02:00:43;7.93;;;7.93;;
24787;SDS011;12883;52.662;5.196;2022-11-20T02:03:10;8.37;;;8.37;;
24787;SDS011;12883;52.662;5.196;2022-11-20T02:05:41;8.73;;;8.73;;
24787;SDS011;12883;52.662;5.196;2022-11-20T02:08:12;8.63;;;8.63;;
24787;SDS011;12883;52.662;5.196;2022-11-20T02:10:38;9.67;;;9.67;;
24787;SDS011;12883;52.662;5.196;2022-11-20T02:13:04;9.23;;;9.23;;
24787;SDS011;12883;52.662;5.196;2022-11-20T02:15:48;9.23;;;9.23;;
24787;SDS011;12883;52.662;5.196;2022-11-20T02:18:14;8.80;;;8.80;;
24787;SDS011;12883;52.662;5.196;2022-11-20T02:20:42;9.37;;;9.37;;
24787;SDS011;12883;52.662;5.196;2022-11-20T02:26:06;9.03;;;9.03;;
24787;SDS011;12883;52.662;5.196;2022-11-20T02:28:35;9.37;;;9.37;;
24787;SDS011;12883;52.662;5.196;2022-11-20T02:31:00;8.27;;;8.27;;
24787;SDS011;12883;52.662;5.196;2022-11-20T02:33:26;8.70;;;8.70;;
24787;SDS011;12883;52.662;5.196;2022-11-20T02:35:51;8.90;;;8.90;;
24787;SDS011;12883;52.662;5.196;2022-11-20T02:38:17;9.40;;;9.40;;
24787;SDS011;12883;52.662;5.196;2022-11-20T02:40:42;8.93;;;8.93;;
24787;SDS011;12883;52.662;5.196;2022-11-20T02:43:08;8.63;;;8.63;;
24787;SDS011;12883;52.662;5.196;2022-11-20T02:45:34;8.60;;;8.60;;
24787;SDS011;12883;52.662;5.196;2022-11-20T02:47:59;9.03;;;9.03;;
24787;SDS011;12883;52.662;5.196;2022-11-20T02:50:25;8.83;;;8.83;;
24787;SDS011;12883;52.662;5.196;2022-11-20T02:52:50;9.13;;;9.13;;
24787;SDS011;12883;52.662;5.196;2022-11-20T02:55:16;8.97;;;8.97;;
24787;SDS011;12883;52.662;5.196;2022-11-20T02:57:41;9.10;;;9.10;;
24787;SDS011;12883;52.662;5.196;2022-11-20T03:00:06;9.50;;;9.50;;
24787;SDS011;12883;52.662;5.196;2022-11-20T03:02:32;9.03;;;9.03;;
24787;SDS011;12883;52.662;5.196;2022-11-20T03:04:58;9.37;;;9.37;;
24787;SDS011;12883;52.662;5.196;2022-11-20T03:07:23;8.50;;;8.50;;
24787;SDS011;12883;52.662;5.196;2022-11-20T03:09:49;9.00;;;9.00;;
24787;SDS011;12883;52.662;5.196;2022-11-20T03:12:14;9.93;;;9.93;;
24787;SDS011;12883;52.662;5.196;2022-11-20T03:14:40;10.47;;;10.47;;
24787;SDS011;12883;52.662;5.196;2022-11-20T03:17:05;10.07;;;10.07;;
24787;SDS011;12883;52.662;5.196;2022-11-20T03:19:30;10.20;;;10.20;;
24787;SDS011;12883;52.662;5.196;2022-11-20T03:21:56;10.00;;;10.00;;
24787;SDS011;12883;52.662;5.196;2022-11-20T03:24:21;11.13;;;11.13;;
24787;SDS011;12883;52.662;5.196;2022-11-20T03:26:46;10.90;;;10.90;;
24787;SDS011;12883;52.662;5.196;2022-11-20T03:29:12;10.13;;;10.13;;
24787;SDS011;12883;52.662;5.196;2022-11-20T03:31:38;10.50;;;10.50;;
24787;SDS011;12883;52.662;5.196;2022-11-20T03:34:05;10.43;;;10.43;;
24787;SDS011;12883;52.662;5.196;2022-11-20T03:36:31;11.07;;;11.07;;
24787;SDS011;12883;52.662;5.196;2022-11-20T03:38:57;9.53;;;9.53;;
24787;SDS011;12883;52.662;5.196;2022-11-20T03:41:23;9.97;;;9.97;;
24787;SDS011;12883;52.662;5.196;2022-11-20T03:43:51;11.07;;;11.07;;
24787;SDS011;12883;52.662;5.196;2022-11-20T03:46:27;11.33;;;11.33;;
24787;SDS011;12883;52.662;5.196;2022-11-20T03:48:53;11.07;;;11.07;;
24787;SDS011;12883;52.662;5.196;2022-11-20T03:51:20;11.30;;;11.30;;
24787;SDS011;12883;52.662;5.196;2022-11-20T03:53:46;10.73;;;10.73;;
24787;SDS011;12883;52.662;5.196;2022-11-20T03:56:13;11.20;;;11.20;;
24787;SDS011;12883;52.662;5.196;2022-11-20T03:58:40;12.23;;;12.23;;
24787;SDS011;12883;52.662;5.196;2022-11-20T04:01:07;11.03;;;11.03;;
24787;SDS011;12883;52.662;5.196;2022-11-20T04:03:34;11.20;;;11.20;;
24787;SDS011;12883;52.662;5.196;2022-11-20T04:06:02;10.90;;;10.90;;
24787;SDS011;12883;52.662;5.196;2022-11-20T04:08:32;11.40;;;11.40;;
24787;SDS011;12883;52.662;5.196;2022-11-20T04:11:15;10.57;;;10.57;;
24787;SDS011;12883;52.662;5.196;2022-11-20T04:13:45;11.23;;;11.23;;
24787;SDS011;12883;52.662;5.196;2022-11-20T04:16:12;10.63;;;10.63;;
24787;SDS011;12883;52.662;5.196;2022-11-20T04:18:38;10.93;;;10.93;;
24787;SDS011;12883;52.662;5.196;2022-11-20T04:21:03;11.57;;;11.57;;
24787;SDS011;12883;52.662;5.196;2022-11-20T04:23:30;11.30;;;11.30;;
24787;SDS011;12883;52.662;5.196;2022-11-20T04:26:00;11.53;;;11.53;;
24787;SDS011;12883;52.662;5.196;2022-11-20T04:28:28;11.07;;;11.07;;
24787;SDS011;12883;52.662;5.196;2022-11-20T04:30:54;11.40;;;11.40;;
24787;SDS011;12883;52.662;5.196;2022-11-20T04:33:19;12.13;;;12.13;;
24787;SDS011;12883;52.662;5.196;2022-11-20T04:35:45;11.70;;;11.70;;
24787;SDS011;12883;52.662;5.196;2022-11-20T04:38:12;12.60;;;12.60;;
24787;SDS011;12883;52.662;5.196;2022-11-20T04:40:38;11.90;;;11.90;;
24787;SDS011;12883;52.662;5.196;2022-11-20T04:43:03;12.10;;;12.10;;
24787;SDS011;12883;52.662;5.196;2022-11-20T04:45:28;12.23;;;12.23;;
24787;SDS011;12883;52.662;5.196;2022-11-20T04:47:53;12.03;;;12.03;;
24787;SDS011;12883;52.662;5.196;2022-11-20T04:50:19;11.90;;;11.90;;
24787;SDS011;12883;52.662;5.196;2022-11-20T04:52:44;11.83;;;11.83;;
24787;SDS011;12883;52.662;5.196;2022-11-20T04:55:10;11.40;;;11.40;;
24787;SDS011;12883;52.662;5.196;2022-11-20T04:57:35;11.47;;;11.47;;
24787;SDS011;12883;52.662;5.196;2022-11-20T05:00:00;12.40;;;12.40;;
24787;SDS011;12883;52.662;5.196;2022-11-20T05:02:26;11.83;;;11.83;;
24787;SDS011;12883;52.662;5.196;2022-11-20T05:04:51;13.57;;;13.57;;
24787;SDS011;12883;52.662;5.196;2022-11-20T05:07:16;11.70;;;11.70;;
24787;SDS011;12883;52.662;5.196;2022-11-20T05:09:41;11.83;;;11.83;;
24787;SDS011;12883;52.662;5.196;2022-11-20T05:12:07;11.10;;;11.10;;
24787;SDS011;12883;52.662;5.196;2022-11-20T05:14:33;11.97;;;11.97;;
24787;SDS011;12883;52.662;5.196;2022-11-20T05:16:59;11.73;;;11.73;;
24787;SDS011;12883;52.662;5.196;2022-11-20T05:19:24;11.23;;;11.23;;
24787;SDS011;12883;52.662;5.196;2022-11-20T05:21:50;11.57;;;11.57;;
24787;SDS011;12883;52.662;5.196;2022-11-20T05:24:15;11.57;;;11.57;;
24787;SDS011;12883;52.662;5.196;2022-11-20T05:26:40;11.53;;;11.53;;
24787;SDS011;12883;52.662;5.196;2022-11-20T05:29:06;11.90;;;11.90;;
24787;SDS011;12883;52.662;5.196;2022-11-20T05:31:31;10.80;;;10.80;;
24787;SDS011;12883;52.662;5.196;2022-11-20T05:33:57;11.00;;;11.00;;
24787;SDS011;12883;52.662;5.196;2022-11-20T05:36:22;11.37;;;11.37;;
24787;SDS011;12883;52.662;5.196;2022-11-20T05:38:48;11.83;;;11.83;;
24787;SDS011;12883;52.662;5.196;2022-11-20T05:41:17;12.37;;;12.37;;
24787;SDS011;12883;52.662;5.196;2022-11-20T05:43:45;11.23;;;11.23;;
24787;SDS011;12883;52.662;5.196;2022-11-20T05:46:12;10.90;;;10.90;;
24787;SDS011;12883;52.662;5.196;2022-11-20T05:48:40;11.73;;;11.73;;
24787;SDS011;12883;52.662;5.196;2022-11-20T05:51:09;11.27;;;11.27;;
24787;SDS011;12883;52.662;5.196;2022-11-20T05:53:36;11.63;;;11.63;;
24787;SDS011;12883;52.662;5.196;2022-11-20T05:56:20;11.77;;;11.77;;
24787;SDS011;12883;52.662;5.196;2022-11-20T05:58:46;10.93;;;10.93;;
24787;SDS011;12883;52.662;5.196;2022-11-20T06:01:17;11.33;;;11.33;;
24787;SDS011;12883;52.662;5.196;2022-11-20T06:03:45;11.10;;;11.10;;
24787;SDS011;12883;52.662;5.196;2022-11-20T06:06:12;10.77;;;10.77;;
24787;SDS011;12883;52.662;5.196;2022-11-20T06:08:39;11.60;;;11.60;;
24787;SDS011;12883;52.662;5.196;2022-11-20T06:11:08;10.93;;;10.93;;
24787;SDS011;12883;52.662;5.196;2022-11-20T06:13:35;10.50;;;10.50;;
24787;SDS011;12883;52.662;5.196;2022-11-20T06:16:01;10.67;;;10.67;;
24787;SDS011;12883;52.662;5.196;2022-11-20T06:18:27;10.53;;;10.53;;
24787;SDS011;12883;52.662;5.196;2022-11-20T06:21:06;9.90;;;9.90;;
24787;SDS011;12883;52.662;5.196;2022-11-20T06:23:34;10.43;;;10.43;;
24787;SDS011;12883;52.662;5.196;2022-11-20T06:26:01;10.13;;;10.13;;
24787;SDS011;12883;52.662;5.196;2022-11-20T06:28:31;9.37;;;9.37;;
24787;SDS011;12883;52.662;5.196;2022-11-20T06:30:57;10.50;;;10.50;;
24787;SDS011;12883;52.662;5.196;2022-11-20T06:33:23;10.50;;;10.50;;
24787;SDS011;12883;52.662;5.196;2022-11-20T06:35:48;10.07;;;10.07;;
24787;SDS011;12883;52.662;5.196;2022-11-20T06:38:13;10.60;;;10.60;;
24787;SDS011;12883;52.662;5.196;2022-11-20T06:40:39;10.60;;;10.60;;
24787;SDS011;12883;52.662;5.196;2022-11-20T06:43:05;11.00;;;11.00;;
24787;SDS011;12883;52.662;5.196;2022-11-20T06:45:31;11.27;;;11.27;;
24787;SDS011;12883;52.662;5.196;2022-11-20T06:47:57;11.20;;;11.20;;
24787;SDS011;12883;52.662;5.196;2022-11-20T06:50:23;11.40;;;11.40;;
24787;SDS011;12883;52.662;5.196;2022-11-20T06:52:48;11.57;;;11.57;;
24787;SDS011;12883;52.662;5.196;2022-11-20T06:55:13;11.50;;;11.50;;
24787;SDS011;12883;52.662;5.196;2022-11-20T06:57:39;11.70;;;11.70;;
24787;SDS011;12883;52.662;5.196;2022-11-20T07:00:04;11.37;;;11.37;;
24787;SDS011;12883;52.662;5.196;2022-11-20T07:02:30;11.87;;;11.87;;
24787;SDS011;12883;52.662;5.196;2022-11-20T07:04:55;11.33;;;11.33;;
24787;SDS011;12883;52.662;5.196;2022-11-20T07:07:21;11.30;;;11.30;;
24787;SDS011;12883;52.662;5.196;2022-11-20T07:09:46;11.93;;;11.93;;
24787;SDS011;12883;52.662;5.196;2022-11-20T07:12:11;12.07;;;12.07;;
24787;SDS011;12883;52.662;5.196;2022-11-20T07:14:37;12.03;;;12.03;;
24787;SDS011;12883;52.662;5.196;2022-11-20T07:17:02;12.73;;;12.73;;
24787;SDS011;12883;52.662;5.196;2022-11-20T07:19:27;11.90;;;11.90;;
24787;SDS011;12883;52.662;5.196;2022-11-20T07:21:52;11.53;;;11.53;;
24787;SDS011;12883;52.662;5.196;2022-11-20T07:24:18;13.03;;;13.03;;
24787;SDS011;12883;52.662;5.196;2022-11-20T07:26:45;11.67;;;11.67;;
24787;SDS011;12883;52.662;5.196;2022-11-20T07:29:11;12.10;;;12.10;;
24787;SDS011;12883;52.662;5.196;2022-11-20T07:31:37;12.30;;;12.30;;
24787;SDS011;12883;52.662;5.196;2022-11-20T07:34:02;12.17;;;12.17;;
24787;SDS011;12883;52.662;5.196;2022-11-20T07:36:27;12.50;;;12.50;;
24787;SDS011;12883;52.662;5.196;2022-11-20T07:38:53;13.00;;;13.00;;
24787;SDS011;12883;52.662;5.196;2022-11-20T07:41:19;12.93;;;12.83;;
24787;SDS011;12883;52.662;5.196;2022-11-20T07:43:44;12.27;;;12.27;;
24787;SDS011;12883;52.662;5.196;2022-11-20T07:46:09;12.97;;;12.97;;
24787;SDS011;12883;52.662;5.196;2022-11-20T07:48:35;12.63;;;12.63;;
24787;SDS011;12883;52.662;5.196;2022-11-20T07:51:00;12.33;;;12.33;;
24787;SDS011;12883;52.662;5.196;2022-11-20T07:53:26;12.57;;;12.57;;
24787;SDS011;12883;52.662;5.196;2022-11-20T07:55:51;12.63;;;12.63;;
24787;SDS011;12883;52.662;5.196;2022-11-20T07:58:19;12.80;;;12.80;;
24787;SDS011;12883;52.662;5.196;2022-11-20T08:00:45;12.50;;;12.50;;
24787;SDS011;12883;52.662;5.196;2022-11-20T08:03:11;13.20;;;13.20;;
24787;SDS011;12883;52.662;5.196;2022-11-20T08:05:36;12.93;;;12.93;;
24787;SDS011;12883;52.662;5.196;2022-11-20T08:08:02;12.93;;;12.93;;
24787;SDS011;12883;52.662;5.196;2022-11-20T08:10:27;12.63;;;12.63;;
24787;SDS011;12883;52.662;5.196;2022-11-20T08:12:53;12.00;;;12.00;;
24787;SDS011;12883;52.662;5.196;2022-11-20T08:15:38;13.03;;;13.03;;
24787;SDS011;12883;52.662;5.196;2022-11-20T08:18:08;13.10;;;13.10;;
24787;SDS011;12883;52.662;5.196;2022-11-20T08:20:36;13.43;;;13.43;;
24787;SDS011;12883;52.662;5.196;2022-11-20T08:23:06;12.67;;;12.67;;
24787;SDS011;12883;52.662;5.196;2022-11-20T08:25:33;12.30;;;12.30;;
24787;SDS011;12883;52.662;5.196;2022-11-20T08:28:00;12.60;;;12.60;;
24787;SDS011;12883;52.662;5.196;2022-11-20T08:30:30;14.10;;;14.10;;
24787;SDS011;12883;52.662;5.196;2022-11-20T08:32:59;13.57;;;13.57;;
24787;SDS011;12883;52.662;5.196;2022-11-20T08:35:27;13.30;;;13.30;;
24787;SDS011;12883;52.662;5.196;2022-11-20T08:37:52;12.37;;;12.37;;
24787;SDS011;12883;52.662;5.196;2022-11-20T08:40:17;12.00;;;12.00;;
24787;SDS011;12883;52.662;5.196;2022-11-20T08:42:46;12.50;;;12.50;;
24787;SDS011;12883;52.662;5.196;2022-11-20T08:45:16;12.87;;;12.87;;
24787;SDS011;12883;52.662;5.196;2022-11-20T08:47:42;13.07;;;13.07;;
24787;SDS011;12883;52.662;5.196;2022-11-20T08:50:09;12.73;;;12.73;;
24787;SDS011;12883;52.662;5.196;2022-11-20T08:52:35;12.60;;;12.60;;
24787;SDS011;12883;52.662;5.196;2022-11-20T08:55:00;13.60;;;13.60;;
24787;SDS011;12883;52.662;5.196;2022-11-20T08:57:26;13.07;;;13.07;;
24787;SDS011;12883;52.662;5.196;2022-11-20T08:59:51;12.60;;;12.60;;
24787;SDS011;12883;52.662;5.196;2022-11-20T09:02:16;12.07;;;12.07;;
24787;SDS011;12883;52.662;5.196;2022-11-20T09:04:42;12.87;;;12.87;;
24787;SDS011;12883;52.662;5.196;2022-11-20T09:07:07;12.67;;;12.67;;
24787;SDS011;12883;52.662;5.196;2022-11-20T09:09:32;12.20;;;12.20;;
24787;SDS011;12883;52.662;5.196;2022-11-20T09:11:58;12.30;;;12.30;;
24787;SDS011;12883;52.662;5.196;2022-11-20T09:14:23;13.03;;;13.03;;
24787;SDS011;12883;52.662;5.196;2022-11-20T09:16:54;12.00;;;12.00;;
24787;SDS011;12883;52.662;5.196;2022-11-20T09:19:23;11.93;;;11.93;;
24787;SDS011;12883;52.662;5.196;2022-11-20T09:21:49;10.90;;;10.90;;
24787;SDS011;12883;52.662;5.196;2022-11-20T09:24:15;11.57;;;11.57;;
24787;SDS011;12883;52.662;5.196;2022-11-20T09:26:40;11.20;;;11.20;;
24787;SDS011;12883;52.662;5.196;2022-11-20T09:29:05;11.73;;;11.73;;
24787;SDS011;12883;52.662;5.196;2022-11-20T09:31:31;11.97;;;11.97;;
24787;SDS011;12883;52.662;5.196;2022-11-20T09:33:56;11.50;;;11.50;;
24787;SDS011;12883;52.662;5.196;2022-11-20T09:36:21;10.87;;;10.87;;
24787;SDS011;12883;52.662;5.196;2022-11-20T09:38:47;10.40;;;10.40;;
24787;SDS011;12883;52.662;5.196;2022-11-20T09:44:09;10.70;;;10.70;;
24787;SDS011;12883;52.662;5.196;2022-11-20T09:46:48;10.53;;;10.53;;
24787;SDS011;12883;52.662;5.196;2022-11-20T09:52:22;11.00;;;11.00;;
24787;SDS011;12883;52.662;5.196;2022-11-20T09:55:20;11.37;;;11.37;;
24787;SDS011;12883;52.662;5.196;2022-11-20T09:57:46;10.87;;;10.87;;
24787;SDS011;12883;52.662;5.196;2022-11-20T10:00:16;11.77;;;11.77;;
24787;SDS011;12883;52.662;5.196;2022-11-20T10:05:18;10.43;;;10.43;;
24787;SDS011;12883;52.662;5.196;2022-11-20T10:07:54;9.60;;;9.60;;
24787;SDS011;12883;52.662;5.196;2022-11-20T10:27:03;11.83;;;11.83;;
24787;SDS011;12883;52.662;5.196;2022-11-20T10:29:53;10.87;;;10.87;;
24787;SDS011;12883;52.662;5.196;2022-11-20T10:32:28;10.40;;;10.40;;
24787;SDS011;12883;52.662;5.196;2022-11-20T10:37:34;12.13;;;12.13;;
24787;SDS011;12883;52.662;5.196;2022-11-20T10:40:14;11.63;;;11.63;;
24787;SDS011;12883;52.662;5.196;2022-11-20T10:43:02;11.50;;;11.50;;
24787;SDS011;12883;52.662;5.196;2022-11-20T10:45:43;11.87;;;11.87;;
24787;SDS011;12883;52.662;5.196;2022-11-20T10:48:10;12.37;;;12.37;;
24787;SDS011;12883;52.662;5.196;2022-11-20T10:50:47;12.63;;;12.63;;
24787;SDS011;12883;52.662;5.196;2022-11-20T10:56:09;13.33;;;13.33;;
24787;SDS011;12883;52.662;5.196;2022-11-20T11:01:40;13.77;;;13.77;;
24787;SDS011;12883;52.662;5.196;2022-11-20T11:04:14;14.33;;;14.33;;
24787;SDS011;12883;52.662;5.196;2022-11-20T11:07:15;14.33;;;14.33;;
24787;SDS011;12883;52.662;5.196;2022-11-20T11:09:49;15.10;;;15.10;;
24787;SDS011;12883;52.662;5.196;2022-11-20T11:12:17;14.03;;;14.03;;
24787;SDS011;12883;52.662;5.196;2022-11-20T11:14:44;15.03;;;15.03;;
24787;SDS011;12883;52.662;5.196;2022-11-20T11:17:27;15.60;;;15.60;;
24787;SDS011;12883;52.662;5.196;2022-11-20T11:20:02;15.33;;;15.33;;
24787;SDS011;12883;52.662;5.196;2022-11-20T11:22:31;15.33;;;15.33;;
24787;SDS011;12883;52.662;5.196;2022-11-20T11:24:58;15.37;;;15.37;;
24787;SDS011;12883;52.662;5.196;2022-11-20T11:27:23;15.83;;;15.83;;
24787;SDS011;12883;52.662;5.196;2022-11-20T11:29:49;15.10;;;15.10;;
24787;SDS011;12883;52.662;5.196;2022-11-20T11:32:15;15.83;;;15.83;;
24787;SDS011;12883;52.662;5.196;2022-11-20T11:35:02;15.50;;;15.50;;
24787;SDS011;12883;52.662;5.196;2022-11-20T11:37:45;16.23;;;16.13;;
24787;SDS011;12883;52.662;5.196;2022-11-20T11:40:13;16.43;;;16.33;;
24787;SDS011;12883;52.662;5.196;2022-11-20T11:42:42;16.17;;;16.17;;
24787;SDS011;12883;52.662;5.196;2022-11-20T11:45:14;16.93;;;16.93;;
24787;SDS011;12883;52.662;5.196;2022-11-20T11:55:45;17.17;;;17.07;;
24787;SDS011;12883;52.662;5.196;2022-11-20T12:00:41;18.80;;;18.70;;
24787;SDS011;12883;52.662;5.196;2022-11-20T12:03:19;19.67;;;19.57;;
24787;SDS011;12883;52.662;5.196;2022-11-20T12:05:50;17.47;;;17.37;;
24787;SDS011;12883;52.662;5.196;2022-11-20T12:08:31;19.23;;;19.13;;
24787;SDS011;12883;52.662;5.196;2022-11-20T12:15:58;18.33;;;18.23;;
24787;SDS011;12883;52.662;5.196;2022-11-20T12:18:25;19.70;;;19.60;;
24787;SDS011;12883;52.662;5.196;2022-11-20T12:44:08;29.17;;;28.97;;
24787;SDS011;12883;52.662;5.196;2022-11-20T12:49:45;28.63;;;28.43;;
24787;SDS011;12883;52.662;5.196;2022-11-20T12:52:20;29.10;;;28.90;;
24787;SDS011;12883;52.662;5.196;2022-11-20T12:55:03;29.13;;;29.03;;
24787;SDS011;12883;52.662;5.196;2022-11-20T12:57:48;28.97;;;28.87;;
24787;SDS011;12883;52.662;5.196;2022-11-20T13:00:19;30.13;;;30.03;;
24787;SDS011;12883;52.662;5.196;2022-11-20T13:08:28;30.03;;;29.83;;
24787;SDS011;12883;52.662;5.196;2022-11-20T13:16:45;30.23;;;30.03;;
24787;SDS011;12883;52.662;5.196;2022-11-20T13:19:17;30.57;;;30.37;;
24787;SDS011;12883;52.662;5.196;2022-11-20T13:21:44;30.57;;;30.37;;
24787;SDS011;12883;52.662;5.196;2022-11-20T13:29:38;29.13;;;28.93;;
24787;SDS011;12883;52.662;5.196;2022-11-20T13:32:18;29.30;;;29.10;;
24787;SDS011;12883;52.662;5.196;2022-11-20T13:34:52;29.77;;;29.60;;
24787;SDS011;12883;52.662;5.196;2022-11-20T13:37:40;29.67;;;29.47;;
24787;SDS011;12883;52.662;5.196;2022-11-20T13:42:43;27.10;;;27.00;;
24787;SDS011;12883;52.662;5.196;2022-11-20T13:45:10;27.50;;;27.40;;
24787;SDS011;12883;52.662;5.196;2022-11-20T13:47:50;27.70;;;27.60;;
24787;SDS011;12883;52.662;5.196;2022-11-20T13:50:16;27.40;;;27.30;;
24787;SDS011;12883;52.662;5.196;2022-11-20T13:52:55;28.33;;;28.17;;
24787;SDS011;12883;52.662;5.196;2022-11-20T14:03:49;23.40;;;23.30;;
24787;SDS011;12883;52.662;5.196;2022-11-20T14:06:27;23.80;;;23.70;;
24787;SDS011;12883;52.662;5.196;2022-11-20T14:08:55;23.50;;;23.40;;
24787;SDS011;12883;52.662;5.196;2022-11-20T14:11:24;22.80;;;22.70;;
24787;SDS011;12883;52.662;5.196;2022-11-20T14:13:52;22.20;;;22.10;;
24787;SDS011;12883;52.662;5.196;2022-11-20T14:16:21;22.37;;;22.27;;
24787;SDS011;12883;52.662;5.196;2022-11-20T14:18:47;22.37;;;22.27;;
24787;SDS011;12883;52.662;5.196;2022-11-20T14:21:20;23.07;;;22.97;;
24787;SDS011;12883;52.662;5.196;2022-11-20T14:23:54;22.73;;;22.63;;
24787;SDS011;12883;52.662;5.196;2022-11-20T14:26:28;22.00;;;21.90;;
24787;SDS011;12883;52.662;5.196;2022-11-20T14:28:54;23.27;;;23.17;;
24787;SDS011;12883;52.662;5.196;2022-11-20T14:31:22;21.63;;;21.53;;
24787;SDS011;12883;52.662;5.196;2022-11-20T14:33:50;22.60;;;22.50;;
24787;SDS011;12883;52.662;5.196;2022-11-20T14:36:17;21.60;;;21.50;;
24787;SDS011;12883;52.662;5.196;2022-11-20T14:38:44;21.67;;;21.57;;
24787;SDS011;12883;52.662;5.196;2022-11-20T14:41:18;22.70;;;22.60;;
24787;SDS011;12883;52.662;5.196;2022-11-20T14:44:08;21.90;;;21.80;;
24787;SDS011;12883;52.662;5.196;2022-11-20T14:46:34;21.00;;;20.90;;
24787;SDS011;12883;52.662;5.196;2022-11-20T14:49:00;22.80;;;22.70;;
24787;SDS011;12883;52.662;5.196;2022-11-20T14:59:32;22.50;;;22.40;;
24787;SDS011;12883;52.662;5.196;2022-11-20T15:02:01;24.23;;;24.13;;
24787;SDS011;12883;52.662;5.196;2022-11-20T15:04:30;22.83;;;22.73;;
24787;SDS011;12883;52.662;5.196;2022-11-20T15:06:57;23.50;;;23.40;;
24787;SDS011;12883;52.662;5.196;2022-11-20T15:09:23;22.27;;;22.17;;
24787;SDS011;12883;52.662;5.196;2022-11-20T15:11:55;21.70;;;21.60;;
24787;SDS011;12883;52.662;5.196;2022-11-20T15:14:23;23.47;;;23.37;;
24787;SDS011;12883;52.662;5.196;2022-11-20T15:16:49;24.57;;;24.47;;
24787;SDS011;12883;52.662;5.196;2022-11-20T15:19:20;25.63;;;25.53;;
24787;SDS011;12883;52.662;5.196;2022-11-20T15:21:47;25.23;;;25.13;;
24787;SDS011;12883;52.662;5.196;2022-11-20T15:24:12;24.60;;;24.50;;
24787;SDS011;12883;52.662;5.196;2022-11-20T15:26:38;22.60;;;22.50;;
24787;SDS011;12883;52.662;5.196;2022-11-20T15:29:10;24.20;;;24.10;;
24787;SDS011;12883;52.662;5.196;2022-11-20T15:31:37;26.10;;;26.00;;
24787;SDS011;12883;52.662;5.196;2022-11-20T15:34:12;25.43;;;25.33;;
24787;SDS011;12883;52.662;5.196;2022-11-20T15:36:40;25.47;;;25.37;;
24787;SDS011;12883;52.662;5.196;2022-11-20T15:39:07;27.10;;;27.00;;
24787;SDS011;12883;52.662;5.196;2022-11-20T15:41:34;25.73;;;25.63;;
24787;SDS011;12883;52.662;5.196;2022-11-20T15:44:03;25.50;;;25.40;;
24787;SDS011;12883;52.662;5.196;2022-11-20T15:46:30;27.13;;;27.03;;
24787;SDS011;12883;52.662;5.196;2022-11-20T15:49:02;26.97;;;26.80;;
24787;SDS011;12883;52.662;5.196;2022-11-20T15:51:35;27.83;;;27.73;;
24787;SDS011;12883;52.662;5.196;2022-11-20T15:54:22;29.27;;;29.07;;
24787;SDS011;12883;52.662;5.196;2022-11-20T15:56:48;28.30;;;28.20;;
24787;SDS011;12883;52.662;5.196;2022-11-20T15:59:19;30.60;;;30.40;;
24787;SDS011;12883;52.662;5.196;2022-11-20T16:01:45;28.67;;;28.57;;
24787;SDS011;12883;52.662;5.196;2022-11-20T16:04:11;28.43;;;28.23;;
24787;SDS011;12883;52.662;5.196;2022-11-20T16:06:40;29.63;;;29.43;;
24787;SDS011;12883;52.662;5.196;2022-11-20T16:09:06;29.40;;;29.30;;
24787;SDS011;12883;52.662;5.196;2022-11-20T16:11:32;30.27;;;30.07;;
24787;SDS011;12883;52.662;5.196;2022-11-20T16:13:58;33.30;;;33.10;;
24787;SDS011;12883;52.662;5.196;2022-11-20T16:16:42;32.17;;;31.97;;
24787;SDS011;12883;52.662;5.196;2022-11-20T16:19:11;31.97;;;31.77;;
24787;SDS011;12883;52.662;5.196;2022-11-20T16:21:37;31.00;;;30.80;;
24787;SDS011;12883;52.662;5.196;2022-11-20T16:24:05;33.53;;;33.33;;
24787;SDS011;12883;52.662;5.196;2022-11-20T16:26:31;32.87;;;32.67;;
24787;SDS011;12883;52.662;5.196;2022-11-20T16:28:58;32.37;;;32.17;;
24787;SDS011;12883;52.662;5.196;2022-11-20T16:31:24;33.13;;;32.93;;
24787;SDS011;12883;52.662;5.196;2022-11-20T16:33:50;32.13;;;31.93;;